Time;durP1;ratioP1;P1;durP2;ratioP2;P2;SDS_P1;SDS_P2;PMS_P1;PMS_P2;Temp;Humidity;BMP_temperature;BMP_pressure;BME280_temperature;BME280_humidity;BME280_pressure;Samples;Min_cycle;Max_cycle;Signal;HPM_P1;HPM_P2
2022/08/24 00:01:07;;;;;;;4.10;3.78;;;17.70;99.90;;;;;;4996631;28;20190;-43
2022/08/24 00:03:34;;;;;;;7.20;4.53;;;17.70;99.90;;;;;;5013073;28;20276;-44
2022/08/24 00:06:01;;;;;;;6.18;4.15;;;17.70;99.90;;;;;;5013208;28;20176;-43
2022/08/24 00:08:27;;;;;;;4.85;3.95;;;17.60;99.90;;;;;;5030963;28;20656;-44
2022/08/24 00:10:53;;;;;;;4.90;3.55;;;17.60;99.90;;;;;;5013122;28;20241;-44
2022/08/24 00:13:19;;;;;;;6.53;4.07;;;17.50;99.90;;;;;;5013018;28;20190;-44
2022/08/24 00:15:45;;;;;;;4.67;3.90;;;17.50;99.90;;;;;;4996623;28;20278;-44
2022/08/24 00:18:12;;;;;;;6.32;3.90;;;17.50;99.90;;;;;;4996202;28;20182;-44
2022/08/24 00:20:38;;;;;;;4.13;3.73;;;17.50;99.90;;;;;;5013053;28;20182;-44
2022/08/24 00:23:04;;;;;;;4.10;3.70;;;17.40;99.90;;;;;;4996954;28;20221;-43
2022/08/24 00:25:31;;;;;;;5.77;4.20;;;17.40;99.90;;;;;;4996578;28;20175;-44
2022/08/24 00:27:57;;;;;;;5.93;4.20;;;17.30;99.90;;;;;;4995877;28;20210;-44
2022/08/24 00:30:24;;;;;;;4.90;3.73;;;17.30;99.90;;;;;;4997798;28;20182;-44
2022/08/24 00:32:50;;;;;;;6.30;4.20;;;17.30;99.90;;;;;;5016807;28;20203;-43
2022/08/24 00:35:18;;;;;;;4.43;3.93;;;17.30;99.90;;;;;;5000691;28;20177;-44
2022/08/24 00:37:45;;;;;;;4.70;4.30;;;17.30;99.90;;;;;;5016540;28;20206;-44
2022/08/24 00:40:15;;;;;;;4.63;3.97;;;17.20;99.90;;;;;;5000284;28;20181;-44
2022/08/24 00:42:42;;;;;;;4.27;3.87;;;17.10;99.90;;;;;;5000443;28;20205;-44
2022/08/24 00:45:10;;;;;;;4.60;4.20;;;17.10;99.90;;;;;;5000213;28;20186;-45
2022/08/24 00:47:54;;;;;;;4.57;3.83;;;17.00;99.90;;;;;;5016315;28;20182;-44
2022/08/24 00:50:43;;;;;;;4.77;4.23;;;17.00;99.90;;;;;;5000303;28;20244;-43
2022/08/24 00:53:22;;;;;;;6.07;4.50;;;17.00;99.90;;;;;;5016300;28;20205;-44
2022/08/24 00:55:51;;;;;;;5.37;4.10;;;17.00;99.90;;;;;;5016781;28;20175;-43
2022/08/24 00:58:22;;;;;;;5.90;4.57;;;16.90;99.90;;;;;;4999621;28;20188;-44
2022/08/24 01:00:55;;;;;;;5.67;4.23;;;16.90;99.90;;;;;;5000159;28;20221;-43
2022/08/24 01:03:21;;;;;;;4.70;4.20;;;16.90;99.90;;;;;;4999679;28;20189;-43
2022/08/24 01:05:47;;;;;;;5.30;4.30;;;16.90;99.90;;;;;;5016181;28;20175;-43
2022/08/24 01:08:15;;;;;;;4.70;4.30;;;17.00;99.90;;;;;;5015784;28;20206;-44
2022/08/24 01:10:53;;;;;;;5.13;4.20;;;17.00;99.90;;;;;;5016159;28;20189;-43
2022/08/24 01:13:20;;;;;;;5.13;3.97;;;17.00;99.90;;;;;;5016249;28;20186;-43
2022/08/24 01:15:50;;;;;;;5.03;3.70;;;17.00;99.90;;;;;;4999418;28;20186;-43
2022/08/24 01:21:08;;;;;;;4.50;4.10;;;16.90;99.90;;;;;;5015825;28;20178;-43
2022/08/24 01:23:38;;;;;;;4.97;4.17;;;16.80;99.90;;;;;;4999603;28;20191;-44
2022/08/24 01:26:07;;;;;;;4.97;3.90;;;16.80;99.90;;;;;;4999528;28;20175;-44
2022/08/24 01:28:35;;;;;;;6.13;4.13;;;16.70;99.90;;;;;;5015606;28;20214;-44
2022/08/24 01:31:01;;;;;;;5.20;4.60;;;16.70;99.90;;;;;;4999258;28;20187;-43
2022/08/24 01:33:30;;;;;;;5.73;4.43;;;16.70;99.90;;;;;;4999434;28;20309;-43
2022/08/24 01:36:17;;;;;;;4.80;4.33;;;16.80;99.90;;;;;;4999259;28;20182;-44
2022/08/24 01:38:45;;;;;;;5.40;4.40;;;16.80;99.90;;;;;;5015159;28;20182;-44
2022/08/24 01:41:11;;;;;;;5.17;4.50;;;16.80;99.90;;;;;;5015290;28;20187;-44
2022/08/24 01:43:37;;;;;;;7.20;4.60;;;16.70;99.90;;;;;;5014986;28;20174;-43
2022/08/24 01:46:05;;;;;;;7.00;5.00;;;16.70;99.90;;;;;;4999431;28;20184;-44
2022/08/24 01:48:30;;;;;;;4.90;4.17;;;16.60;99.90;;;;;;4998918;28;20209;-43
2022/08/24 01:50:56;;;;;;;5.37;4.13;;;16.50;99.90;;;;;;5015258;28;20186;-43
2022/08/24 01:53:22;;;;;;;4.67;4.20;;;16.50;99.90;;;;;;4998833;28;20201;-44
2022/08/24 01:55:49;;;;;;;6.77;4.63;;;16.50;99.90;;;;;;4998889;28;20175;-43
2022/08/24 01:58:15;;;;;;;4.63;4.13;;;16.50;99.90;;;;;;5015038;28;20337;-43
2022/08/24 02:00:43;;;;;;;4.90;4.27;;;16.50;99.90;;;;;;4999426;28;20186;-44
2022/08/24 02:03:09;;;;;;;5.40;4.73;;;16.50;99.90;;;;;;4998873;28;20206;-43
2022/08/24 02:05:35;;;;;;;6.63;4.60;;;16.40;99.90;;;;;;4998815;28;20265;-44
2022/08/24 02:08:01;;;;;;;6.47;4.40;;;16.40;99.90;;;;;;4998115;28;20301;-43
2022/08/24 02:10:28;;;;;;;5.03;4.53;;;16.30;99.90;;;;;;4998573;28;20238;-43
2022/08/24 02:12:56;;;;;;;4.30;4.00;;;16.20;99.90;;;;;;5014998;28;20206;-43
2022/08/24 02:15:38;;;;;;;4.63;4.07;;;16.20;99.90;;;;;;5014808;28;20265;-43
2022/08/24 02:18:10;;;;;;;6.10;5.07;;;16.20;99.90;;;;;;4998489;28;20190;-43
2022/08/24 02:20:37;;;;;;;4.70;4.30;;;16.20;99.90;;;;;;5014941;28;20182;-43
2022/08/24 02:23:05;;;;;;;5.37;4.30;;;16.20;99.90;;;;;;5084073;23;20251;-28
2022/08/24 02:25:32;;;;;;;5.13;4.63;;;16.20;99.90;;;;;;5037661;28;20177;-29
2022/08/24 02:27:59;;;;;;;5.67;4.80;;;16.10;99.90;;;;;;5054190;28;20685;-28
2022/08/24 02:30:26;;;;;;;5.30;4.80;;;16.10;99.90;;;;;;5037808;28;20177;-28
2022/08/24 02:32:51;;;;;;;6.87;4.47;;;16.10;99.90;;;;;;5037401;28;20194;-28
2022/08/24 02:35:19;;;;;;;5.70;4.50;;;16.10;99.90;;;;;;5037633;28;20177;-30
2022/08/24 02:37:45;;;;;;;6.17;4.57;;;16.10;99.90;;;;;;5037381;28;20181;-29
2022/08/24 02:40:13;;;;;;;6.00;4.90;;;16.00;99.90;;;;;;5037891;28;20260;-29
2022/08/24 02:42:40;;;;;;;4.77;4.37;;;16.00;99.90;;;;;;5037491;28;20264;-28
2022/08/24 02:45:07;;;;;;;4.87;4.43;;;16.00;99.90;;;;;;5054099;28;20192;-28
2022/08/24 02:47:34;;;;;;;5.37;4.80;;;16.10;99.90;;;;;;5037131;28;20180;-29
2022/08/24 02:50:02;;;;;;;6.43;4.50;;;16.00;99.90;;;;;;5053775;28;20173;-29
2022/08/24 02:52:28;;;;;;;5.97;4.70;;;16.00;99.90;;;;;;5037289;28;20193;-28
2022/08/24 02:54:54;;;;;;;5.40;4.90;;;15.90;99.90;;;;;;5053888;28;20184;-29
2022/08/24 02:57:21;;;;;;;5.90;4.57;;;15.90;99.90;;;;;;5053801;28;20177;-29
2022/08/24 02:59:47;;;;;;;5.40;4.90;;;15.90;99.90;;;;;;5037579;28;20185;-30
2022/08/24 03:02:14;;;;;;;5.30;4.80;;;15.80;99.90;;;;;;5036873;28;20197;-29
2022/08/24 03:04:40;;;;;;;5.47;4.60;;;15.80;99.90;;;;;;5053805;28;20181;-29
2022/08/24 03:07:06;;;;;;;6.97;4.93;;;15.80;99.90;;;;;;5071355;28;20188;-28
2022/08/24 03:09:32;;;;;;;7.27;4.73;;;15.70;99.90;;;;;;5071533;28;20216;-28
2022/08/24 03:11:57;;;;;;;5.47;4.90;;;15.70;99.90;;;;;;5037165;28;20299;-29
2022/08/24 03:14:23;;;;;;;5.50;5.00;;;15.60;99.90;;;;;;5036875;28;20185;-29
2022/08/24 03:16:49;;;;;;;7.20;5.00;;;15.60;99.90;;;;;;5053104;28;20177;-30
2022/08/24 03:19:16;;;;;;;5.47;5.00;;;15.60;99.90;;;;;;5053516;28;20208;-30
2022/08/24 03:21:44;;;;;;;7.13;4.70;;;15.70;99.90;;;;;;5053555;28;20234;-30
2022/08/24 03:24:10;;;;;;;5.63;4.97;;;15.70;99.90;;;;;;5036870;28;20192;-29
2022/08/24 03:26:37;;;;;;;5.73;4.83;;;15.70;99.90;;;;;;5036666;28;20181;-30
2022/08/24 03:29:04;;;;;;;5.47;4.57;;;15.60;99.90;;;;;;5036076;28;20216;-29
2022/08/24 03:31:32;;;;;;;4.93;4.43;;;15.50;99.90;;;;;;5053322;28;20326;-29
2022/08/24 03:33:58;;;;;;;5.63;4.70;;;15.40;99.90;;;;;;5036928;28;20179;-29
2022/08/24 03:36:24;;;;;;;5.00;4.60;;;15.30;99.90;;;;;;5036847;28;20173;-28
2022/08/24 03:38:50;;;;;;;5.50;4.50;;;15.20;99.90;;;;;;5036404;28;20192;-29
2022/08/24 03:41:17;;;;;;;6.80;4.90;;;15.10;99.90;;;;;;5036979;28;20231;-29
2022/08/24 03:43:47;;;;;;;7.43;5.00;;;15.00;99.90;;;;;;5036177;28;20211;-30
2022/08/24 03:46:21;;;;;;;5.63;5.13;;;15.00;99.90;;;;;;5036792;28;20177;-29
2022/08/24 03:48:48;;;;;;;5.53;4.80;;;14.90;99.90;;;;;;5052652;28;20215;-30
2022/08/24 03:51:19;;;;;;;6.33;5.70;;;15.00;99.90;;;;;;5052987;28;20187;-30
2022/08/24 03:53:46;;;;;;;5.97;5.47;;;14.90;99.90;;;;;;5036576;28;20189;-29
2022/08/24 03:56:13;;;;;;;5.77;5.27;;;14.90;99.90;;;;;;5036173;28;20264;-29
2022/08/24 03:58:40;;;;;;;6.33;5.63;;;14.80;99.90;;;;;;5036144;28;20177;-30
2022/08/24 04:01:07;;;;;;;6.00;5.43;;;14.80;99.90;;;;;;5035565;28;20207;-30
2022/08/24 04:03:42;;;;;;;5.53;5.03;;;14.80;99.90;;;;;;5052745;28;20209;-30
2022/08/24 04:06:11;;;;;;;9.23;5.53;;;14.70;99.90;;;;;;5036104;28;20191;-30
2022/08/24 04:08:38;;;;;;;7.27;5.37;;;14.80;99.90;;;;;;5035643;28;20208;-29
2022/08/24 04:11:05;;;;;;;7.23;5.73;;;14.70;99.90;;;;;;5036014;28;20211;-29
2022/08/24 04:13:30;;;;;;;6.00;5.50;;;14.70;99.90;;;;;;5052615;28;20196;-30
2022/08/24 04:16:07;;;;;;;6.10;5.50;;;14.70;99.90;;;;;;5036449;28;20185;-30
2022/08/24 04:18:33;;;;;;;6.67;5.40;;;14.80;99.90;;;;;;5036035;28;20181;-30
2022/08/24 04:20:59;;;;;;;5.93;4.90;;;14.90;99.90;;;;;;5036057;28;20693;-30
2022/08/24 04:23:25;;;;;;;6.93;5.37;;;14.90;99.90;;;;;;5052231;28;20212;-30
2022/08/24 04:25:51;;;;;;;7.00;5.20;;;14.90;99.90;;;;;;5035934;28;20174;-29
2022/08/24 04:28:18;;;;;;;6.27;5.17;;;14.90;99.90;;;;;;5035609;28;20212;-30
2022/08/24 04:30:49;;;;;;;7.60;5.30;;;14.80;99.90;;;;;;5036031;28;20180;-30
2022/08/24 04:33:23;;;;;;;6.07;4.87;;;14.80;99.90;;;;;;5037028;28;20200;-30
2022/08/24 04:35:49;;;;;;;7.37;5.10;;;14.80;99.90;;;;;;5052228;28;20185;-30
2022/08/24 04:38:17;;;;;;;5.87;4.93;;;14.70;99.90;;;;;;5035920;28;20267;-30
2022/08/24 04:40:55;;;;;;;5.70;5.20;;;14.70;99.90;;;;;;5037488;28;20212;-30
2022/08/24 04:43:21;;;;;;;6.07;5.47;;;14.70;99.90;;;;;;5035974;28;20228;-30
2022/08/24 04:45:48;;;;;;;7.13;4.83;;;14.60;99.90;;;;;;5052729;28;20180;-30
2022/08/24 04:48:15;;;;;;;6.10;5.47;;;14.60;99.90;;;;;;5051780;28;20209;-29
2022/08/24 04:50:42;;;;;;;6.03;5.40;;;14.60;99.90;;;;;;5052530;28;20200;-29
2022/08/24 04:53:10;;;;;;;6.07;5.27;;;14.60;99.90;;;;;;5035695;28;20197;-30
2022/08/24 04:55:48;;;;;;;6.33;5.80;;;14.60;99.90;;;;;;5035745;28;20183;-30
2022/08/24 04:58:16;;;;;;;6.83;5.40;;;14.70;99.90;;;;;;5035464;28;20187;-30
2022/08/24 05:00:43;;;;;;;5.67;5.10;;;14.70;99.90;;;;;;5035334;28;20185;-29
2022/08/24 05:03:10;;;;;;;7.20;5.60;;;14.70;99.90;;;;;;5035621;28;20199;-29
2022/08/24 05:05:45;;;;;;;8.00;5.20;;;14.70;99.90;;;;;;5035587;28;20192;-30
2022/08/24 05:08:13;;;;;;;7.20;5.33;;;14.70;99.90;;;;;;5035600;28;20238;-30
2022/08/24 05:10:41;;;;;;;5.77;5.00;;;14.70;99.90;;;;;;5052179;28;20177;-30
2022/08/24 05:13:08;;;;;;;6.30;5.20;;;14.70;99.90;;;;;;5051833;28;20204;-29
2022/08/24 05:15:35;;;;;;;5.80;5.10;;;14.80;99.90;;;;;;5051944;28;20195;-30
2022/08/24 05:18:02;;;;;;;6.00;5.47;;;14.80;99.90;;;;;;5037211;28;20209;-29
2022/08/24 05:20:28;;;;;;;8.20;5.73;;;14.80;99.90;;;;;;5038937;28;20184;-30
2022/08/24 05:22:54;;;;;;;8.63;5.43;;;14.80;99.90;;;;;;5038889;28;20215;-29
2022/08/24 05:25:20;;;;;;;6.37;5.43;;;14.80;99.90;;;;;;5055733;28;20188;-30
2022/08/24 05:27:47;;;;;;;6.50;5.90;;;14.90;99.90;;;;;;5038480;28;20207;-29
2022/08/24 05:30:13;;;;;;;5.73;5.17;;;14.90;99.90;;;;;;5039090;28;20188;-30
2022/08/24 05:32:39;;;;;;;6.53;5.47;;;15.00;99.90;;;;;;5038886;28;20204;-30
2022/08/24 05:35:06;;;;;;;7.23;5.63;;;15.10;99.90;;;;;;5038863;28;20242;-30
2022/08/24 05:37:37;;;;;;;6.13;5.53;;;15.10;99.90;;;;;;5038587;28;20184;-30
2022/08/24 05:40:16;;;;;;;6.23;5.67;;;15.30;99.90;;;;;;5055462;28;20219;-29
2022/08/24 05:42:47;;;;;;;6.43;5.40;;;15.40;99.90;;;;;;5039137;28;20193;-29
2022/08/24 05:45:14;;;;;;;8.67;6.03;;;15.60;99.90;;;;;;5038702;28;20263;-30
2022/08/24 05:47:40;;;;;;;6.20;5.60;;;15.70;99.90;;;;;;5038394;28;20172;-30
2022/08/24 05:50:31;;;;;;;7.23;6.47;;;15.80;99.90;;;;;;5049493;28;20249;-30
2022/08/24 05:52:57;;;;;;;6.50;5.80;;;15.90;99.90;;;;;;5038213;28;20207;-30
2022/08/24 05:55:23;;;;;;;6.53;5.93;;;16.00;99.90;;;;;;5038232;28;20267;-30
2022/08/24 05:57:49;;;;;;;7.00;6.40;;;16.10;99.90;;;;;;5038385;28;20647;-30
2022/08/24 06:00:19;;;;;;;6.73;5.97;;;16.20;99.90;;;;;;5038729;28;20181;-29
2022/08/24 06:02:51;;;;;;;7.53;6.20;;;16.20;99.90;;;;;;5038880;28;20192;-30
2022/08/24 06:05:18;;;;;;;10.40;5.87;;;16.30;99.90;;;;;;5038195;28;20231;-30
2022/08/24 06:07:44;;;;;;;7.43;6.37;;;16.40;99.90;;;;;;5054425;28;20183;-30
2022/08/24 06:10:11;;;;;;;6.30;5.70;;;16.40;99.90;;;;;;5038482;28;20181;-30
2022/08/24 06:12:37;;;;;;;6.77;5.97;;;16.50;99.90;;;;;;5038319;28;20198;-30
2022/08/24 06:15:04;;;;;;;8.20;6.57;;;16.60;99.90;;;;;;5038078;28;20181;-30
2022/08/24 06:17:30;;;;;;;8.63;7.07;;;16.70;99.90;;;;;;5054632;28;20268;-30
2022/08/24 06:19:57;;;;;;;7.20;6.53;;;16.80;99.90;;;;;;5054317;28;20184;-30
2022/08/24 06:22:23;;;;;;;7.30;6.60;;;16.80;99.90;;;;;;5054282;28;20213;-30
2022/08/24 06:27:33;;;;;;;9.83;6.10;;;16.80;99.90;;;;;;5054123;28;20191;-31
2022/08/24 06:30:03;;;;;;;7.67;6.53;;;16.90;99.90;;;;;;5037518;28;20213;-30
2022/08/24 06:33:01;;;;;;;7.57;6.13;;;16.90;99.90;;;;;;5050200;28;20193;-30
2022/08/24 06:35:37;;;;;;;7.47;6.73;;;17.00;99.90;;;;;;5053907;28;20203;-30
2022/08/24 06:38:04;;;;;;;8.57;6.13;;;17.20;99.90;;;;;;5037750;28;20185;-30
2022/08/24 06:40:30;;;;;;;7.73;6.53;;;17.30;99.90;;;;;;5054230;28;20184;-30
2022/08/24 06:43:01;;;;;;;6.83;6.23;;;17.40;99.90;;;;;;5053974;28;20201;-30
2022/08/24 06:45:36;;;;;;;7.40;6.70;;;17.50;99.90;;;;;;5054283;28;20222;-30
2022/08/24 06:48:03;;;;;;;9.83;7.07;;;17.70;99.90;;;;;;5053945;28;20201;-31
2022/08/24 06:50:29;;;;;;;7.53;6.80;;;17.80;99.90;;;;;;5054292;28;20204;-30
2022/08/24 06:52:55;;;;;;;8.17;6.50;;;17.90;99.90;;;;;;5037452;28;20211;-30
2022/08/24 06:55:23;;;;;;;8.15;6.45;;;18.00;99.90;;;;;;5037298;28;20173;-30
2022/08/24 06:57:49;;;;;;;7.47;6.60;;;18.00;99.90;;;;;;5036832;28;20185;-30
2022/08/24 07:00:16;;;;;;;7.27;6.57;;;18.10;99.90;;;;;;5037058;28;20182;-31
2022/08/24 07:02:42;;;;;;;8.68;6.45;;;18.20;99.90;;;;;;5037002;28;20266;-30
2022/08/24 07:05:08;;;;;;;7.45;6.43;;;18.30;99.90;;;;;;5037133;28;20177;-30
2022/08/24 07:08:00;;;;;;;8.88;6.43;;;18.50;99.90;;;;;;5053907;28;20263;-30
2022/08/24 07:10:27;;;;;;;8.80;6.97;;;18.60;99.90;;;;;;5053683;28;20177;-30
2022/08/24 07:12:53;;;;;;;7.32;6.60;;;18.70;99.90;;;;;;5053499;28;20192;-30
2022/08/24 07:15:19;;;;;;;7.20;6.47;;;18.80;99.90;;;;;;5053715;28;20173;-30
2022/08/24 07:17:56;;;;;;;7.18;6.57;;;19.00;99.90;;;;;;5053243;28;20184;-30
2022/08/24 07:20:23;;;;;;;7.45;6.68;;;19.10;99.90;;;;;;5053368;28;20173;-30
2022/08/24 07:23:13;;;;;;;8.00;7.07;;;19.20;99.90;;;;;;5053114;28;20205;-30
2022/08/24 07:25:40;;;;;;;8.10;6.47;;;19.40;99.90;;;;;;5037124;28;20181;-30
2022/08/24 07:28:07;;;;;;;8.23;6.30;;;19.50;99.90;;;;;;5036539;28;20214;-30
2022/08/24 07:30:33;;;;;;;6.65;5.95;;;19.60;99.90;;;;;;5053311;28;20177;-30
2022/08/24 07:32:59;;;;;;;6.32;5.72;;;19.80;99.90;;;;;;5036260;28;20208;-30
2022/08/24 07:35:31;;;;;;;9.02;5.97;;;19.90;99.90;;;;;;5053085;28;20706;-30
2022/08/24 07:37:57;;;;;;;7.93;6.20;;;20.00;99.90;;;;;;5036509;28;20686;-31
2022/08/24 07:40:25;;;;;;;6.90;5.88;;;20.10;99.90;;;;;;5036086;28;20174;-31
2022/08/24 07:42:52;;;;;;;7.43;6.57;;;20.20;99.90;;;;;;5036533;28;20201;-31
2022/08/24 07:45:19;;;;;;;6.95;6.05;;;20.30;99.90;;;;;;5052709;28;20180;-29
2022/08/24 07:47:49;;;;;;;6.88;6.18;;;20.50;99.90;;;;;;5036680;28;20260;-30
2022/08/24 07:50:30;;;;;;;7.13;6.45;;;20.50;99.90;;;;;;5052987;28;20469;-31
2022/08/24 07:52:56;;;;;;;7.13;6.43;;;20.60;99.90;;;;;;5036277;28;20197;-30
2022/08/24 07:55:22;;;;;;;8.32;6.22;;;20.70;99.90;;;;;;5036365;28;20241;-30
2022/08/24 07:57:48;;;;;;;7.03;6.30;;;20.80;99.90;;;;;;5035750;28;20173;-31
2022/08/24 08:00:18;;;;;;;6.93;6.00;;;20.90;99.90;;;;;;5036485;28;20184;-30
2022/08/24 08:02:49;;;;;;;7.85;6.20;;;20.90;99.90;;;;;;5052788;28;20225;-31
2022/08/24 08:05:19;;;;;;;7.22;6.07;;;21.10;99.90;;;;;;5052810;28;20177;-31
2022/08/24 08:07:49;;;;;;;6.30;5.70;;;21.20;99.90;;;;;;5052366;28;20177;-31
2022/08/24 08:10:16;;;;;;;5.55;5.05;;;21.40;99.90;;;;;;5070519;28;20205;-31
2022/08/24 08:12:42;;;;;;;7.97;5.82;;;21.50;99.90;;;;;;5035904;28;20207;-31
2022/08/24 08:15:10;;;;;;;7.45;5.75;;;21.80;99.90;;;;;;5036242;28;20180;-31
2022/08/24 08:17:39;;;;;;;5.18;4.78;;;21.80;99.90;;;;;;5052424;28;20219;-31
2022/08/24 08:20:08;;;;;;;5.78;4.85;;;22.00;99.90;;;;;;5035970;28;20213;-31
2022/08/24 08:25:50;;;;;;;5.45;4.75;;;22.20;99.90;;;;;;5049878;28;20173;-33
2022/08/24 08:28:23;;;;;;;6.68;4.90;;;22.40;99.90;;;;;;5049956;28;20213;-32
2022/08/24 08:30:51;;;;;;;6.78;5.28;;;22.50;99.90;;;;;;5049211;28;20178;-33
2022/08/24 08:33:17;;;;;;;5.70;4.57;;;22.70;99.90;;;;;;5048967;28;20194;-32
2022/08/24 08:35:43;;;;;;;5.72;4.95;;;22.90;99.90;;;;;;5032408;28;20235;-32
2022/08/24 08:38:10;;;;;;;7.10;4.60;;;22.90;99.90;;;;;;5048750;28;20189;-32
2022/08/24 08:40:55;;;;;;;5.75;4.53;;;23.00;99.90;;;;;;5032544;28;20277;-33
2022/08/24 08:43:44;;;;;;;5.60;4.90;;;23.20;99.90;;;;;;5048902;28;20259;-32
2022/08/24 08:46:22;;;;;;;5.95;4.50;;;23.40;99.90;;;;;;5032294;28;20235;-33
2022/08/24 08:49:27;;;;;;;6.38;4.90;;;23.60;99.90;;;;;;5035331;28;20210;-32
2022/08/24 08:52:02;;;;;;;8.13;5.03;;;23.90;99.90;;;;;;5050935;28;20174;-33
2022/08/24 08:54:34;;;;;;;5.35;4.80;;;24.00;99.90;;;;;;5052815;28;20181;-32
2022/08/24 08:57:19;;;;;;;4.57;4.18;;;24.00;99.90;;;;;;5036084;28;20178;-32
2022/08/24 09:00:04;;;;;;;7.07;4.47;;;24.30;99.90;;;;;;5036402;28;20205;-35
2022/08/24 09:02:48;;;;;;;5.03;4.32;;;24.50;99.90;;;;;;5036140;28;20265;-33
2022/08/24 09:05:36;;;;;;;6.60;4.03;;;24.60;99.90;;;;;;5036258;28;20265;-33
2022/08/24 09:08:32;;;;;;;5.45;4.10;;;24.80;99.90;;;;;;5036135;28;20209;-33
2022/08/24 09:11:15;;;;;;;5.70;4.35;;;25.00;99.90;;;;;;5035908;28;20189;-33
2022/08/24 09:13:45;;;;;;;5.57;4.03;;;25.10;99.90;;;;;;5036537;28;20224;-33
2022/08/24 09:16:32;;;;;;;4.13;3.80;;;25.20;99.90;;;;;;5037530;28;20174;-33
2022/08/24 09:19:32;;;;;;;6.70;3.63;;;25.10;99.90;;;;;;5035510;28;20189;-34
2022/08/24 09:22:11;;;;;;;6.43;4.25;;;25.10;99.90;;;;;;5053071;28;20186;-33
2022/08/24 09:24:52;;;;;;;10.05;3.70;;;25.20;99.90;;;;;;5056035;28;20177;-33
2022/08/24 09:27:59;;;;;;;4.82;3.25;;;25.30;99.90;;;;;;5057039;28;20189;-34
2022/08/24 09:30:32;;;;;;;4.53;3.17;;;25.50;99.90;;;;;;5072293;28;20213;-32
2022/08/24 09:33:07;;;;;;;3.88;3.30;;;25.80;99.90;;;;;;5072235;28;20235;-35
2022/08/24 09:35:55;;;;;;;3.65;3.35;;;26.10;99.90;;;;;;5055679;28;20187;-36
2022/08/24 09:38:42;;;;;;;3.28;2.90;;;26.40;99.90;;;;;;5071888;28;20170;-33
2022/08/24 09:41:26;;;;;;;3.92;2.92;;;26.60;99.90;;;;;;5038947;28;20201;-35
2022/08/24 09:44:29;;;;;;;2.75;2.30;;;26.80;99.90;;;;;;5038817;28;20201;-35
2022/08/24 09:46:56;;;;;;;3.65;2.50;;;27.10;99.90;;;;;;5054898;28;20181;-36
2022/08/24 09:49:41;;;;;;;3.58;2.10;;;27.30;99.70;;;;;;5055184;28;20215;-34
2022/08/24 09:52:31;;;;;;;3.53;2.22;;;27.50;97.70;;;;;;5038515;28;20192;-37
2022/08/24 09:55:16;;;;;;;2.92;2.63;;;27.50;97.90;;;;;;5038440;28;20177;-35
2022/08/24 09:58:01;;;;;;;2.78;2.10;;;27.80;97.70;;;;;;5054952;28;20177;-33
2022/08/24 10:00:36;;;;;;;2.80;2.05;;;28.00;94.80;;;;;;5055194;28;20651;-36
2022/08/24 10:03:21;;;;;;;4.43;2.00;;;28.10;95.10;;;;;;5070915;28;20292;-33
2022/08/24 10:06:21;;;;;;;2.70;2.15;;;28.30;95.20;;;;;;5071953;28;20233;-35
2022/08/24 10:09:01;;;;;;;2.90;1.90;;;28.40;93.90;;;;;;5038031;28;20201;-33
2022/08/24 10:11:46;;;;;;;2.20;2.00;;;28.60;93.40;;;;;;5054771;28;20208;-34
2022/08/24 10:14:49;;;;;;;1.90;1.77;;;28.60;92.90;;;;;;5038191;28;20204;-35
2022/08/24 10:17:41;;;;;;;2.58;2.10;;;28.70;92.90;;;;;;5071189;28;20180;-33
2022/08/24 10:20:25;;;;;;;3.05;1.90;;;28.80;92.60;;;;;;5050694;28;20181;-35
2022/08/24 10:23:18;;;;;;;3.28;1.83;;;29.00;91.20;;;;;;5037871;28;20243;-34
2022/08/24 10:26:11;;;;;;;4.22;1.50;;;29.10;90.10;;;;;;5037820;28;20177;-35
2022/08/24 10:29:02;;;;;;;2.35;1.83;;;29.20;89.90;;;;;;5037632;28;20237;-35
2022/08/24 10:31:37;;;;;;;2.83;1.58;;;29.10;88.70;;;;;;5071238;28;20181;-36
2022/08/24 10:34:21;;;;;;;1.88;1.45;;;29.20;89.10;;;;;;5037840;28;20227;-35
2022/08/24 10:36:54;;;;;;;1.50;1.40;;;29.20;87.90;;;;;;5072037;28;20189;-33
2022/08/24 10:39:54;;;;;;;1.92;1.50;;;29.20;88.20;;;;;;5054327;28;20181;-33
2022/08/24 10:45:55;;;;;;;1.65;1.52;;;29.60;85.30;;;;;;5054229;28;20271;-33
2022/08/24 10:48:52;;;;;;;1.50;1.40;;;29.30;86.30;;;;;;5053821;28;20292;-34
2022/08/24 10:51:20;;;;;;;2.65;1.83;;;29.30;86.40;;;;;;5071189;28;20177;-35
2022/08/24 10:53:49;;;;;;;1.83;1.42;;;29.50;87.70;;;;;;5054748;28;20193;-33
2022/08/24 10:56:19;;;;;;;1.58;1.33;;;29.60;85.90;;;;;;5070854;28;20213;-35
2022/08/24 10:58:49;;;;;;;1.63;1.52;;;29.60;83.20;;;;;;5070544;28;20181;-33
2022/08/24 11:01:33;;;;;;;2.90;1.60;;;29.50;84.00;;;;;;5037207;28;20188;-33
2022/08/24 11:04:24;;;;;;;1.30;1.20;;;29.60;85.20;;;;;;5071761;28;20223;-35
2022/08/24 11:07:13;;;;;;;1.30;1.20;;;29.60;79.60;;;;;;5053619;28;20246;-33
2022/08/24 11:09:52;;;;;;;1.55;1.40;;;29.70;79.60;;;;;;5037051;28;20215;-35
2022/08/24 11:12:29;;;;;;;1.75;1.17;;;29.70;78.80;;;;;;5071147;28;20185;-35
2022/08/24 11:14:58;;;;;;;1.30;1.20;;;29.70;78.30;;;;;;5069596;28;20181;-33
2022/08/24 11:17:28;;;;;;;2.65;1.35;;;29.90;75.10;;;;;;5069988;28;20177;-33
2022/08/24 11:19:56;;;;;;;1.30;1.20;;;30.00;76.50;;;;;;5069873;28;20203;-36
2022/08/24 11:22:36;;;;;;;1.60;1.20;;;30.10;77.10;;;;;;5053887;28;20212;-32
2022/08/24 11:25:40;;;;;;;1.30;1.20;;;30.30;75.10;;;;;;5070386;28;20189;-35
2022/08/24 11:28:23;;;;;;;1.55;1.45;;;30.20;75.00;;;;;;4993047;28;20196;-33
2022/08/24 11:30:52;;;;;;;1.60;1.50;;;30.30;79.20;;;;;;5053511;28;20173;-35
2022/08/24 11:33:26;;;;;;;4.53;1.23;;;30.40;78.20;;;;;;5053623;28;20259;-33
2022/08/24 11:35:52;;;;;;;2.15;1.67;;;30.60;79.40;;;;;;5069948;28;20180;-33
2022/08/24 11:38:29;;;;;;;5.38;1.90;;;30.70;78.40;;;;;;5069895;28;20181;-33
2022/08/24 11:41:00;;;;;;;2.70;1.55;;;30.70;78.50;;;;;;5069585;28;20188;-33
2022/08/24 11:43:59;;;;;;;3.03;1.83;;;30.70;78.90;;;;;;5036510;28;20200;-33
2022/08/24 11:46:52;;;;;;;1.88;1.55;;;30.80;79.70;;;;;;5049832;28;20199;-35
2022/08/24 11:49:31;;;;;;;1.83;1.63;;;30.90;81.70;;;;;;5069813;28;20656;-35
2022/08/24 11:52:10;;;;;;;2.00;1.80;;;31.00;79.90;;;;;;5036300;28;20169;-35
2022/08/24 11:54:49;;;;;;;3.45;1.70;;;31.10;80.60;;;;;;5069754;28;20256;-32
2022/08/24 11:57:44;;;;;;;1.90;1.70;;;31.10;80.60;;;;;;5037248;28;20246;-35
2022/08/24 12:00:20;;;;;;;3.00;1.70;;;31.20;80.30;;;;;;5048888;28;20280;-35
2022/08/24 12:03:17;;;;;;;2.50;1.70;;;31.20;80.10;;;;;;5069432;28;20232;-35
2022/08/24 12:05:51;;;;;;;1.60;1.40;;;31.40;78.40;;;;;;5069419;28;20174;-35
2022/08/24 12:08:57;;;;;;;1.95;1.77;;;31.50;78.90;;;;;;5069159;28;20214;-35
2022/08/24 12:11:40;;;;;;;3.53;1.55;;;31.70;77.20;;;;;;5052824;28;20181;-36
2022/08/24 12:14:32;;;;;;;2.35;1.38;;;31.60;77.30;;;;;;5035891;28;20197;-35
2022/08/24 12:17:11;;;;;;;1.90;1.70;;;31.70;77.00;;;;;;5069335;28;20170;-35
2022/08/24 12:19:50;;;;;;;1.60;1.50;;;31.70;76.50;;;;;;5069568;28;20224;-36
2022/08/24 12:22:18;;;;;;;2.72;1.80;;;31.80;75.30;;;;;;5069249;28;20255;-36
2022/08/24 12:24:58;;;;;;;2.08;1.83;;;32.00;76.70;;;;;;5069248;28;20192;-37
2022/08/24 12:27:36;;;;;;;2.75;1.75;;;32.10;76.50;;;;;;5072401;28;20267;-37
2022/08/24 12:30:11;;;;;;;1.77;1.67;;;32.30;76.60;;;;;;5056630;28;20275;-35
2022/08/24 12:32:49;;;;;;;1.83;1.40;;;32.10;76.10;;;;;;5073420;28;20207;-35
2022/08/24 12:35:27;;;;;;;2.00;1.42;;;32.10;77.30;;;;;;5040153;28;20188;-35
2022/08/24 12:38:16;;;;;;;2.10;1.60;;;32.30;77.30;;;;;;5074527;28;20246;-36
2022/08/24 12:41:03;;;;;;;1.80;1.60;;;32.40;75.80;;;;;;5056139;28;20213;-36
2022/08/24 12:43:54;;;;;;;1.60;1.50;;;32.40;78.20;;;;;;5074315;28;20259;-36
2022/08/24 12:46:23;;;;;;;2.40;1.50;;;32.20;76.20;;;;;;5073310;28;20180;-36
2022/08/24 12:49:09;;;;;;;2.22;1.42;;;32.10;75.40;;;;;;5073510;28;20209;-35
2022/08/24 12:52:05;;;;;;;4.35;1.52;;;31.90;75.80;;;;;;5073328;28;20188;-36
2022/08/24 12:55:05;;;;;;;2.45;1.50;;;32.00;78.40;;;;;;5056235;28;20260;-35
2022/08/24 12:57:32;;;;;;;1.70;1.60;;;32.20;78.40;;;;;;5039404;28;20200;-37
2022/08/24 13:00:12;;;;;;;1.60;1.50;;;32.30;77.50;;;;;;5056383;28;20216;-35
2022/08/24 13:02:45;;;;;;;1.90;1.40;;;32.30;76.00;;;;;;5054893;28;20200;-36
2022/08/24 13:05:19;;;;;;;1.40;1.30;;;32.30;76.20;;;;;;5072870;28;20215;-35
2022/08/24 13:07:48;;;;;;;1.30;1.20;;;32.30;73.70;;;;;;5073137;28;20184;-35
2022/08/24 13:10:23;;;;;;;1.70;1.40;;;32.40;72.80;;;;;;5072522;28;20209;-36
2022/08/24 13:13:05;;;;;;;1.30;1.20;;;32.40;71.30;;;;;;5055819;28;20280;-35
2022/08/24 13:15:30;;;;;;;1.77;1.30;;;32.30;72.00;;;;;;5056756;28;20185;-33
2022/08/24 13:18:07;;;;;;;1.75;1.25;;;32.40;72.60;;;;;;5055526;28;20174;-35
2022/08/24 13:20:42;;;;;;;1.50;1.40;;;32.50;71.30;;;;;;5039344;28;20219;-36
2022/08/24 13:23:13;;;;;;;0.95;0.95;;;32.40;69.60;;;;;;5039271;28;20204;-34
2022/08/24 13:25:57;;;;;;;1.70;1.23;;;32.30;69.30;;;;;;5056009;28;20174;-36
2022/08/24 13:28:23;;;;;;;1.60;1.40;;;32.30;70.80;;;;;;5055830;28;20205;-35
2022/08/24 13:30:52;;;;;;;2.05;1.40;;;32.30;71.20;;;;;;5039052;28;20237;-36